Time;durP1;ratioP1;P1;durP2;ratioP2;P2;SDS_P1;SDS_P2;PMS_P1;PMS_P2;Temp;Humidity;BMP_temperature;BMP_pressure;BME280_temperature;BME280_humidity;BME280_pressure;Samples;Min_cycle;Max_cycle;Signal;HPM_P1;HPM_P2
2023/04/24 04:08:24;;;;;;;16.12;12.85;;;;;;;14.38;76.49;99623.03;5605229;31;110866;-56
2023/04/24 04:11:28;;;;;;;15.52;11.93;;;;;;;14.38;76.49;99623.03;5583705;31;33343;-56
2023/04/24 04:14:30;;;;;;;15.93;12.10;;;;;;;14.07;79.41;99634.06;5583990;32;33634;-56
2023/04/24 04:17:32;;;;;;;18.85;12.13;;;;;;;14.10;76.66;99633.44;5588819;31;33092;-56
2023/04/24 04:20:35;;;;;;;16.35;11.95;;;;;;;14.20;75.86;99648.47;5595788;31;33178;-55
2023/04/24 04:23:38;;;;;;;14.87;12.50;;;;;;;14.39;74.68;99661.56;5583774;31;34324;-55
2023/04/24 04:26:46;;;;;;;14.07;12.57;;;;;;;14.24;83.82;99654.81;5586078;31;33539;-56
2023/04/24 04:29:50;;;;;;;15.23;12.60;;;;;;;14.32;87.29;99648.59;5587765;31;33170;-56
2023/04/24 04:32:52;;;;;;;15.90;13.00;;;;;;;14.67;83.65;99635.78;5583683;31;33462;-57
2023/04/24 04:35:58;;;;;;;14.25;11.60;;;;;;;14.64;84.28;99636.44;5591965;31;34408;-56
2023/04/24 04:39:02;;;;;;;16.00;11.93;;;;;;;14.73;76.57;99641.78;5587510;31;33548;-57
2023/04/24 04:42:06;;;;;;;15.23;12.73;;;;;;;14.76;74.28;99647.31;5596413;31;33169;-57
2023/04/24 04:45:11;;;;;;;14.98;11.95;;;;;;;14.69;74.63;99649.72;5583418;31;33322;-56
2023/04/24 04:48:18;;;;;;;16.20;11.55;;;;;;;14.58;76.86;99643.13;5599678;31;33649;-56
2023/04/24 04:51:20;;;;;;;13.18;11.63;;;;;;;14.52;79.19;99639.03;5600313;31;33257;-56
2023/04/24 04:54:23;;;;;;;15.90;13.18;;;;;;;14.52;77.75;99629.03;5601015;31;33267;-56
2023/04/24 04:57:26;;;;;;;14.85;11.95;;;;;;;14.51;76.17;99626.66;5584973;31;33236;-57
2023/04/24 05:00:34;;;;;;;16.05;11.95;;;;;;;14.60;73.95;99632.00;5583000;31;33332;-57
2023/04/24 05:03:38;;;;;;;13.23;11.15;;;;;;;14.56;74.65;99631.88;5590059;31;32754;-56
2023/04/24 05:06:41;;;;;;;15.07;11.68;;;;;;;14.62;72.83;99632.47;5594863;31;34368;-57
2023/04/24 05:09:44;;;;;;;15.02;11.88;;;;;;;14.75;71.17;99626.84;5599112;31;33690;-56
2023/04/24 05:12:49;;;;;;;23.62;11.93;;;;;;;14.75;78.05;99626.84;5602110;31;32001;-56
2023/04/24 05:15:51;;;;;;;15.60;11.48;;;;;;;14.79;77.69;99627.00;5595901;31;33295;-56
2023/04/24 05:18:54;;;;;;;14.98;12.18;;;;;;;14.79;78.10;99622.38;5581867;31;33203;-57
2023/04/24 05:21:57;;;;;;;13.48;11.38;;;;;;;14.87;77.51;99615.38;5589387;31;31751;-56
2023/04/24 05:25:00;;;;;;;15.95;11.45;;;;;;;14.85;72.22;99616.81;5588867;31;33372;-56
2023/04/24 05:28:02;;;;;;;15.70;12.18;;;;;;;14.78;75.20;99626.19;5574679;31;34270;-56
2023/04/24 05:31:06;;;;;;;14.10;11.80;;;;;;;14.82;72.23;99620.16;5572887;31;34085;-57
2023/04/24 05:34:10;;;;;;;12.48;11.15;;;;;;;14.85;71.25;99625.69;5578446;31;33350;-56
2023/04/24 05:37:14;;;;;;;15.20;12.27;;;;;;;14.91;72.15;99629.00;5583116;31;34545;-56
2023/04/24 05:40:16;;;;;;;16.40;11.68;;;;;;;14.90;75.54;99627.37;5588560;31;34374;-56
2023/04/24 05:43:19;;;;;;;20.95;11.50;;;;;;;14.99;71.34;99631.62;5589575;31;34366;-56
2023/04/24 05:46:21;;;;;;;14.82;11.85;;;;;;;14.94;78.31;99634.53;5585496;31;34413;-56
2023/04/24 05:49:24;;;;;;;13.90;12.13;;;;;;;14.86;74.39;99629.94;5589377;31;33710;-56
2023/04/24 05:52:27;;;;;;;14.10;11.02;;;;;;;14.89;77.04;99634.69;5575532;31;34529;-56
2023/04/24 05:55:30;;;;;;;16.40;11.68;;;;;;;14.98;74.42;99637.34;5584538;31;34134;-55
2023/04/24 05:58:33;;;;;;;15.48;12.10;;;;;;;15.09;81.62;99640.47;5580453;31;33637;-56
2023/04/24 06:01:36;;;;;;;20.45;13.80;;;;;;;15.15;72.18;99633.75;5584814;31;32644;-56
2023/04/24 06:04:41;;;;;;;15.43;11.73;;;;;;;15.18;70.90;99639.28;5583286;31;33508;-56
2023/04/24 06:07:44;;;;;;;18.05;11.88;;;;;;;15.31;75.78;99629.34;5569591;31;33677;-56
2023/04/24 06:10:47;;;;;;;17.77;12.10;;;;;;;15.43;70.02;99629.41;5588353;31;33543;-57
2023/04/24 06:13:50;;;;;;;16.75;12.25;;;;;;;15.35;75.10;99642.97;5580158;31;33161;-56
2023/04/24 06:16:59;;;;;;;17.73;11.48;;;;;;;15.40;73.68;99651.69;5582893;31;33106;-56
2023/04/24 06:20:05;;;;;;;14.05;11.93;;;;;;;15.49;74.16;99655.06;5575258;31;31816;-57
2023/04/24 06:23:07;;;;;;;14.35;11.93;;;;;;;15.59;76.55;99645.00;5581511;31;33643;-56
2023/04/24 06:26:10;;;;;;;15.75;12.00;;;;;;;15.57;71.38;99645.34;5588048;31;33267;-56
2023/04/24 06:29:13;;;;;;;16.12;12.48;;;;;;;15.60;75.89;99652.78;5583335;31;33675;-55
2023/04/24 06:32:15;;;;;;;15.38;13.73;;;;;;;15.50;73.68;99656.69;5585096;31;33376;-55
2023/04/24 06:35:17;;;;;;;15.73;12.40;;;;;;;15.34;73.74;99653.00;5588068;31;33677;-56
2023/04/24 06:38:20;;;;;;;14.68;12.80;;;;;;;15.40;85.87;99635.47;5570412;31;33709;-55
2023/04/24 06:41:22;;;;;;;18.20;12.27;;;;;;;15.41;81.00;99645.16;5573499;31;34239;-56
2023/04/24 06:44:24;;;;;;;15.57;11.75;;;;;;;15.44;79.73;99651.81;5576249;31;33504;-56
2023/04/24 06:47:27;;;;;;;14.65;12.18;;;;;;;15.49;81.61;99649.66;5576851;31;34306;-56
2023/04/24 06:50:29;;;;;;;14.40;12.80;;;;;;;15.45;77.74;99648.75;5574910;31;33196;-57
2023/04/24 06:53:31;;;;;;;14.57;11.93;;;;;;;15.54;76.87;99637.91;5584335;31;33639;-57
2023/04/24 06:56:34;;;;;;;14.65;11.52;;;;;;;15.45;81.57;99629.84;5585576;31;33641;-56
2023/04/24 06:59:37;;;;;;;12.52;11.12;;;;;;;15.49;74.93;99630.75;5573418;31;33627;-56
2023/04/24 07:02:40;;;;;;;15.52;12.18;;;;;;;15.63;81.21;99629.69;5582913;31;34430;-56
2023/04/24 07:05:43;;;;;;;19.33;12.95;;;;;;;15.80;84.19;99634.97;5584720;31;33114;-57
2023/04/24 07:08:46;;;;;;;17.77;12.95;;;;;;;15.98;79.49;99636.38;5586844;31;33729;-56
2023/04/24 07:11:49;;;;;;;14.90;13.20;;;;;;;16.06;83.66;99634.72;5586960;31;34426;-56
2023/04/24 07:14:52;;;;;;;16.95;13.05;;;;;;;15.96;77.50;99627.03;5577408;31;33706;-56
2023/04/24 07:17:54;;;;;;;15.60;12.60;;;;;;;15.95;81.40;99642.44;5584792;31;34218;-56
2023/04/24 07:20:56;;;;;;;14.13;12.65;;;;;;;15.83;75.70;99642.44;5582508;31;32091;-56
2023/04/24 07:23:59;;;;;;;13.43;12.00;;;;;;;15.84;80.19;99648.63;5587072;31;34365;-56
2023/04/24 07:27:02;;;;;;;12.25;11.05;;;;;;;15.85;83.12;99648.28;5583780;31;33874;-56
2023/04/24 07:30:05;;;;;;;14.23;12.02;;;;;;;16.16;82.10;99637.00;5578297;31;32828;-56
2023/04/24 07:33:07;;;;;;;21.85;11.27;;;;;;;16.07;75.65;99635.50;5581541;31;34482;-57
2023/04/24 07:36:15;;;;;;;14.73;12.90;;;;;;;15.94;75.91;99626.56;5574183;31;33413;-57
2023/04/24 07:39:17;;;;;;;13.98;11.60;;;;;;;15.83;75.07;99634.31;5578006;31;33592;-57
2023/04/24 07:42:20;;;;;;;17.02;12.32;;;;;;;16.06;77.41;99629.31;5582787;31;34255;-56
2023/04/24 07:45:23;;;;;;;15.75;12.48;;;;;;;16.19;79.44;99630.91;5586320;31;34215;-57
2023/04/24 07:48:26;;;;;;;14.93;11.25;;;;;;;16.21;73.26;99636.75;5585752;31;33613;-57
2023/04/24 07:51:28;;;;;;;16.40;12.45;;;;;;;16.15;78.76;99632.69;5586338;31;33576;-56
2023/04/24 07:54:31;;;;;;;17.90;11.88;;;;;;;16.12;75.64;99632.56;5587795;31;33696;-56
2023/04/24 07:57:33;;;;;;;13.20;11.10;;;;;;;16.15;74.56;99634.59;5585775;31;33742;-56
2023/04/24 08:00:36;;;;;;;13.40;10.40;;;;;;;16.33;73.57;99644.13;5581870;31;34019;-56
2023/04/24 08:03:38;;;;;;;14.27;10.82;;;;;;;16.13;75.01;99634.97;5586119;31;33154;-57
2023/04/24 08:06:40;;;;;;;13.93;11.10;;;;;;;16.48;79.14;99649.97;5581875;31;33627;-56
2023/04/24 08:09:43;;;;;;;13.68;10.70;;;;;;;16.70;82.31;99640.63;5575090;31;32864;-56
2023/04/24 08:12:45;;;;;;;14.85;10.75;;;;;;;16.71;78.27;99626.75;5582408;31;34202;-56
2023/04/24 08:15:48;;;;;;;13.52;10.80;;;;;;;16.75;73.02;99621.47;5576073;31;33701;-56
2023/04/24 08:18:51;;;;;;;12.50;11.20;;;;;;;16.60;72.32;99622.94;5578481;31;33674;-56
2023/04/24 08:21:53;;;;;;;14.93;11.25;;;;;;;16.60;74.48;99623.72;5584931;31;33125;-56
2023/04/24 08:24:56;;;;;;;13.98;11.73;;;;;;;16.48;72.08;99626.41;5576310;31;34209;-56
2023/04/24 08:27:59;;;;;;;14.52;12.13;;;;;;;16.44;73.10;99634.41;5578250;31;35682;-56
2023/04/24 08:31:01;;;;;;;16.75;11.82;;;;;;;16.50;76.80;99628.81;5585763;31;34190;-57
2023/04/24 08:34:05;;;;;;;13.93;12.07;;;;;;;16.61;73.89;99628.00;5584342;31;33099;-56
2023/04/24 08:37:23;;;;;;;14.77;12.00;;;;;;;16.62;74.13;99623.38;5582321;31;34209;-57
2023/04/24 08:40:30;;;;;;;15.27;12.13;;;;;;;16.64;73.48;99631.94;5582835;31;33583;-55
2023/04/24 08:43:33;;;;;;;15.25;11.52;;;;;;;16.75;77.55;99622.25;5578166;31;33670;-57
2023/04/24 08:46:37;;;;;;;11.88;10.48;;;;;;;16.99;77.61;99620.69;5579331;31;34158;-57
2023/04/24 08:49:39;;;;;;;13.88;11.32;;;;;;;16.97;72.81;99617.50;5572197;31;33173;-56
2023/04/24 08:52:42;;;;;;;16.00;10.80;;;;;;;17.07;70.73;99625.94;5581012;31;33647;-57
2023/04/24 08:55:47;;;;;;;12.93;10.63;;;;;;;17.18;73.58;99628.97;5588422;31;33666;-56
2023/04/24 08:58:51;;;;;;;12.63;11.10;;;;;;;17.20;77.18;99631.34;5582474;31;32296;-57
2023/04/24 09:01:55;;;;;;;13.30;10.55;;;;;;;17.40;72.24;99624.97;5581018;31;34231;-56
2023/04/24 09:04:58;;;;;;;13.45;11.07;;;;;;;17.48;75.07;99621.34;5581538;31;33686;-57
2023/04/24 09:08:02;;;;;;;11.65;10.40;;;;;;;17.55;71.09;99609.91;5585330;31;34012;-56
2023/04/24 09:11:04;;;;;;;16.00;11.50;;;;;;;17.55;74.13;99609.91;5577844;31;33647;-56
2023/04/24 09:14:07;;;;;;;13.52;11.00;;;;;;;17.49;69.18;99603.16;5578372;31;33182;-56
2023/04/24 09:17:09;;;;;;;17.62;10.90;;;;;;;17.46;68.44;99612.75;5579536;31;33556;-56
2023/04/24 09:20:11;;;;;;;13.00;10.18;;;;;;;17.41;68.06;99612.97;5575356;31;33807;-56
2023/04/24 09:23:17;;;;;;;14.23;10.48;;;;;;;17.62;73.69;99607.38;5580304;31;34385;-56
2023/04/24 09:26:22;;;;;;;15.38;10.60;;;;;;;17.75;67.46;99597.28;5578585;31;34434;-56
2023/04/24 09:29:25;;;;;;;13.67;10.37;;;;;;;17.76;68.54;99602.38;5585593;31;33722;-56
2023/04/24 09:32:29;;;;;;;12.13;9.48;;;;;;;17.72;65.86;99600.69;5583859;31;33681;-56
2023/04/24 09:35:32;;;;;;;12.45;9.52;;;;;;;17.72;66.27;99598.75;5583079;31;33770;-57
2023/04/24 09:38:37;;;;;;;14.48;10.18;;;;;;;17.82;66.50;99592.84;5577428;31;33693;-56
2023/04/24 09:41:57;;;;;;;14.80;9.93;;;;;;;17.98;67.09;99590.16;5585177;31;33600;-56
2023/04/24 09:45:00;;;;;;;12.73;9.65;;;;;;;18.13;67.93;99585.09;5583120;31;34442;-56
2023/04/24 09:48:16;;;;;;;14.57;8.75;;;;;;;18.29;65.10;99583.94;5570848;31;31800;-57
2023/04/24 09:51:35;;;;;;;12.95;8.93;;;;;;;18.43;67.60;99580.78;5581034;31;33641;-56
2023/04/24 09:54:38;;;;;;;11.18;8.88;;;;;;;18.39;66.24;99569.06;5574030;31;32209;-56
2023/04/24 09:57:56;;;;;;;10.40;8.98;;;;;;;18.41;62.38;99568.69;5576480;31;34303;-56
2023/04/24 10:00:59;;;;;;;12.30;9.20;;;;;;;18.42;63.29;99564.84;5578130;31;33643;-56
2023/04/24 10:04:02;;;;;;;11.70;9.02;;;;;;;18.51;65.49;99570.88;5570783;31;34458;-57
2023/04/24 10:07:09;;;;;;;9.90;7.57;;;;;;;18.48;62.50;99561.53;5582019;31;33645;-56
2023/04/24 10:10:12;;;;;;;12.60;8.70;;;;;;;18.44;64.45;99576.13;5580915;31;34403;-56
2023/04/24 10:13:17;;;;;;;12.05;7.78;;;;;;;18.63;64.07;99576.19;5575788;31;34455;-56
2023/04/24 10:16:22;;;;;;;10.70;8.27;;;;;;;18.60;63.27;99574.19;5579044;31;33790;-58
2023/04/24 10:19:26;;;;;;;10.45;7.90;;;;;;;18.69;62.09;99574.78;5588118;31;33701;-56
2023/04/24 10:22:30;;;;;;;8.43;6.82;;;;;;;18.60;61.38;99566.03;5584765;31;33589;-57
2023/04/24 10:25:34;;;;;;;8.35;7.45;;;;;;;18.73;61.52;99564.03;5583956;31;32303;-57
2023/04/24 10:28:36;;;;;;;10.25;7.75;;;;;;;18.62;59.28;99568.41;5584673;31;34312;-56
2023/04/24 10:31:40;;;;;;;9.65;7.72;;;;;;;18.59;58.39;99569.13;5582998;31;34370;-56
2023/04/24 10:34:44;;;;;;;11.53;9.23;;;;;;;18.56;63.41;99562.47;5576472;31;33663;-56
2023/04/24 10:37:50;;;;;;;13.52;9.20;;;;;;;18.68;61.34;99564.28;5580561;31;33523;-57
2023/04/24 10:41:06;;;;;;;10.70;9.00;;;;;;;18.74;63.46;99563.69;5581961;31;33921;-56
2023/04/24 10:44:11;;;;;;;14.55;9.23;;;;;;;18.86;63.67;99560.03;5582419;31;33650;-57
2023/04/24 10:47:14;;;;;;;10.83;9.40;;;;;;;18.89;64.74;99563.97;5581672;31;33740;-56
2023/04/24 10:50:16;;;;;;;11.52;9.80;;;;;;;18.83;64.11;99555.31;5585372;31;33650;-56
2023/04/24 10:53:26;;;;;;;11.45;10.23;;;;;;;18.88;61.38;99555.06;5568848;31;34403;-57
2023/04/24 10:56:28;;;;;;;13.98;10.07;;;;;;;18.83;61.32;99555.31;5579594;31;34447;-56
2023/04/24 10:59:35;;;;;;;16.77;9.32;;;;;;;18.83;62.77;99558.03;5588164;31;33884;-56
2023/04/24 11:02:40;;;;;;;10.77;8.75;;;;;;;18.73;59.60;99547.72;5588182;31;33680;-56
2023/04/24 11:05:59;;;;;;;11.80;9.40;;;;;;;18.89;65.93;99547.69;5581324;31;34459;-56
2023/04/24 11:09:16;;;;;;;12.90;8.77;;;;;;;19.06;62.67;99541.06;5585812;31;33638;-56
2023/04/24 11:12:18;;;;;;;14.70;9.68;;;;;;;19.23;61.83;99541.41;5586455;31;33647;-57
2023/04/24 11:15:21;;;;;;;12.45;9.23;;;;;;;19.25;58.38;99533.69;5583753;31;33809;-57
2023/04/24 11:18:24;;;;;;;11.48;8.80;;;;;;;19.15;59.72;99528.03;5574816;31;34487;-57
2023/04/24 11:21:31;;;;;;;11.43;9.65;;;;;;;19.11;59.15;99525.25;5584044;31;33663;-56
2023/04/24 11:24:46;;;;;;;13.25;9.88;;;;;;;19.29;60.46;99522.88;5583065;31;33530;-56
2023/04/24 11:27:50;;;;;;;15.07;9.40;;;;;;;19.27;59.78;99524.38;5569883;31;35188;-56
2023/04/24 11:30:54;;;;;;;11.65;9.23;;;;;;;19.26;62.85;99526.31;5584643;31;34151;-56
2023/04/24 11:34:09;;;;;;;13.23;9.55;;;;;;;19.28;64.27;99515.09;5588420;31;33751;-56
2023/04/24 11:37:13;;;;;;;14.55;9.40;;;;;;;19.25;61.58;99516.59;5581245;31;33812;-56
2023/04/24 11:40:19;;;;;;;13.82;9.43;;;;;;;19.29;61.43;99517.44;5584030;31;33640;-56
2023/04/24 11:43:23;;;;;;;15.98;10.20;;;;;;;19.39;62.70;99510.63;5587011;31;33673;-56
2023/04/24 11:46:31;;;;;;;15.25;10.18;;;;;;;19.48;61.63;99506.53;5585725;31;33805;-56
2023/04/24 11:49:37;;;;;;;12.95;10.18;;;;;;;19.53;62.03;99508.16;5576962;31;34314;-56
2023/04/24 11:52:46;;;;;;;16.75;10.35;;;;;;;19.71;61.52;99509.31;5580221;31;34327;-56
2023/04/24 11:55:49;;;;;;;16.60;10.20;;;;;;;19.66;59.23;99501.44;5581739;31;33160;-56
2023/04/24 11:58:56;;;;;;;15.85;10.52;;;;;;;19.59;59.90;99498.56;5585228;31;34296;-56
2023/04/24 12:01:58;;;;;;;13.43;8.35;;;;;;;19.70;59.23;99498.78;5569223;31;33612;-56
2023/04/24 12:05:00;;;;;;;10.48;7.70;;;;;;;19.61;59.10;99484.63;5581410;31;34375;-56
2023/04/24 12:08:04;;;;;;;11.93;7.72;;;;;;;19.74;57.80;99485.25;5578295;31;33800;-56
2023/04/24 12:11:07;;;;;;;13.00;8.77;;;;;;;19.83;56.68;99478.41;5582285;31;34394;-56
2023/04/24 12:14:12;;;;;;;11.18;9.73;;;;;;;19.89;58.29;99476.16;5574206;31;33605;-56
2023/04/24 12:17:23;;;;;;;12.95;10.05;;;;;;;19.93;60.86;99485.16;5578505;31;33718;-56
2023/04/24 12:20:28;;;;;;;13.20;9.95;;;;;;;19.93;60.38;99485.16;5581227;31;34462;-58
2023/04/24 12:23:37;;;;;;;15.48;9.88;;;;;;;19.89;60.11;99481.63;5587235;31;34429;-58
2023/04/24 12:26:43;;;;;;;12.43;10.45;;;;;;;19.85;61.59;99481.56;5579803;31;33607;-58
2023/04/24 12:30:13;;;;;;;17.65;10.10;;;;;;;19.94;59.12;99467.72;5569850;32;33636;-58
2023/04/24 12:33:21;;;;;;;15.93;10.35;;;;;;;19.77;59.48;99468.19;5568623;31;33770;-59
2023/04/24 12:36:24;;;;;;;14.38;10.05;;;;;;;19.62;59.51;99462.50;5570484;32;33817;-59
2023/04/24 12:39:26;;;;;;;11.38;9.40;;;;;;;19.71;59.95;99452.19;5570397;32;33778;-58
2023/04/24 12:42:30;;;;;;;11.20;8.88;;;;;;;19.74;61.76;99450.69;5571469;31;33730;-58
2023/04/24 12:45:32;;;;;;;14.35;8.50;;;;;;;19.74;62.86;99453.41;5589803;31;34416;-58
2023/04/24 12:48:35;;;;;;;10.00;8.20;;;;;;;19.77;60.97;99447.25;5589983;31;33620;-58
2023/04/24 12:51:37;;;;;;;14.68;8.10;;;;;;;19.69;60.24;99445.56;5590052;31;34439;-58
2023/04/24 12:54:40;;;;;;;15.70;8.60;;;;;;;19.53;60.67;99442.16;5589994;31;33796;-58
2023/04/24 12:57:42;;;;;;;10.30;7.57;;;;;;;19.42;62.09;99431.09;5589686;31;33184;-58
2023/04/24 13:00:45;;;;;;;10.40;7.57;;;;;;;19.43;64.78;99429.94;5590154;31;33724;-58
2023/04/24 13:03:47;;;;;;;16.35;7.97;;;;;;;19.34;63.40;99441.06;5589857;31;33900;-59
2023/04/24 13:06:50;;;;;;;9.95;7.62;;;;;;;19.34;63.03;99432.13;5572132;31;34322;-59
2023/04/24 13:09:54;;;;;;;10.07;6.75;;;;;;;19.33;63.83;99431.31;5570210;32;33363;-59
2023/04/24 13:12:57;;;;;;;12.68;7.30;;;;;;;19.15;65.43;99432.97;5570345;32;33553;-59
2023/04/24 13:15:59;;;;;;;10.55;6.85;;;;;;;19.07;67.91;99437.47;5570203;32;33687;-58
2023/04/24 13:19:02;;;;;;;11.23;7.10;;;;;;;19.10;68.61;99439.47;5569977;32;34382;-58
2023/04/24 13:22:05;;;;;;;7.18;5.40;;;;;;;19.08;69.16;99444.47;5569196;32;33645;-58
2023/04/24 13:25:08;;;;;;;9.77;5.05;;;;;;;18.96;68.98;99431.06;5569974;32;33793;-58
2023/04/24 13:28:10;;;;;;;12.23;5.18;;;;;;;18.96;67.58;99422.91;5575325;31;33739;-58
2023/04/24 13:31:13;;;;;;;10.90;5.30;;;;;;;18.88;68.13;99422.00;5585742;31;34265;-58
2023/04/24 13:34:18;;;;;;;12.48;5.45;;;;;;;18.93;67.80;99420.91;5584047;31;34331;-59
2023/04/24 13:37:21;;;;;;;7.50;4.60;;;;;;;18.83;65.35;99413.34;5587967;31;33644;-58
2023/04/24 13:40:23;;;;;;;10.77;4.40;;;;;;;18.49;66.15;99429.31;5589369;31;34375;-58
2023/04/24 13:43:25;;;;;;;8.60;5.03;;;;;;;18.37;67.42;99413.94;5588493;31;34253;-58
2023/04/24 13:46:28;;;;;;;9.25;4.22;;;;;;;18.35;73.26;99426.31;5588771;31;33990;-58
2023/04/24 13:49:30;;;;;;;8.68;4.53;;;;;;;18.35;67.18;99429.03;5588188;31;34999;-59
2023/04/24 13:52:33;;;;;;;6.50;4.70;;;;;;;18.05;67.56;99438.47;5586619;31;32249;-58
2023/04/24 13:55:36;;;;;;;13.50;4.85;;;;;;;18.02;68.92;99443.81;5583061;31;34300;-58
2023/04/24 13:58:38;;;;;;;8.63;4.90;;;;;;;17.89;72.64;99455.91;5587192;31;33881;-58
2023/04/24 14:01:40;;;;;;;10.07;5.55;;;;;;;17.86;69.74;99456.59;5585092;31;34302;-58
2023/04/24 14:04:43;;;;;;;13.60;6.35;;;;;;;17.62;73.44;99466.44;5589139;31;33635;-58
2023/04/24 14:07:46;;;;;;;9.00;5.90;;;;;;;17.56;81.23;99465.91;5588895;31;34412;-59
2023/04/24 14:10:48;;;;;;;9.77;6.43;;;;;;;17.41;80.55;99471.31;5589201;31;33358;-58
2023/04/24 14:13:50;;;;;;;17.58;8.15;;;;;;;17.26;83.17;99462.84;5589237;31;33922;-58
2023/04/24 14:16:53;;;;;;;17.80;8.70;;;;;;;17.14;87.06;99473.72;5589326;31;33684;-58
2023/04/24 14:19:56;;;;;;;14.52;7.80;;;;;;;17.11;91.62;99464.34;5589487;31;33752;-58
2023/04/24 14:22:59;;;;;;;13.30;7.60;;;;;;;16.90;88.57;99461.88;5589130;31;33754;-58
2023/04/24 14:26:01;;;;;;;12.75;7.20;;;;;;;16.78;95.79;99469.25;5589203;31;34419;-58
2023/04/24 14:29:03;;;;;;;12.13;8.07;;;;;;;16.84;93.32;99467.87;5589296;31;34275;-59
2023/04/24 14:32:16;;;;;;;13.40;7.35;;;;;;;16.88;94.11;99460.63;5587696;31;33952;-56
2023/04/24 14:35:18;;;;;;;9.15;7.90;;;;;;;16.88;95.76;99466.03;5588680;31;33640;-56
2023/04/24 14:38:22;;;;;;;14.35;8.02;;;;;;;16.83;94.96;99453.56;5589203;31;34385;-56
2023/04/24 14:41:24;;;;;;;9.50;7.82;;;;;;;16.80;93.58;99464.28;5583249;31;33694;-57
2023/04/24 14:44:26;;;;;;;11.85;8.52;;;;;;;16.98;95.47;99465.53;5569733;32;34268;-56
2023/04/24 14:47:30;;;;;;;11.82;8.48;;;;;;;17.03;99.11;99459.91;5580197;31;33693;-56
2023/04/24 14:50:32;;;;;;;11.90;9.25;;;;;;;17.03;93.20;99464.53;5587237;31;33659;-56
2023/04/24 14:53:35;;;;;;;15.88;10.13;;;;;;;16.96;100.00;99467.03;5588115;31;33941;-56
2023/04/24 14:56:39;;;;;;;13.95;9.48;;;;;;;16.85;99.45;99469.44;5587753;31;33613;-57
2023/04/24 14:59:41;;;;;;;10.57;9.48;;;;;;;16.85;100.00;99469.44;5588853;31;34262;-56
2023/04/24 15:02:44;;;;;;;10.80;9.52;;;;;;;16.95;100.00;99468.94;5587504;31;34261;-56
2023/04/24 15:05:47;;;;;;;11.35;9.48;;;;;;;16.99;99.08;99469.06;5586115;31;33600;-56
2023/04/24 15:08:49;;;;;;;11.45;9.63;;;;;;;16.93;98.93;99462.31;5588835;31;34344;-56
2023/04/24 15:11:52;;;;;;;10.95;9.88;;;;;;;16.88;96.66;99471.44;5588380;31;34320;-57
2023/04/24 15:14:54;;;;;;;10.35;9.27;;;;;;;16.86;98.02;99471.81;5588750;31;33784;-57
2023/04/24 15:17:57;;;;;;;10.88;9.30;;;;;;;16.91;97.16;99470.78;5588966;31;33636;-57
2023/04/24 15:20:59;;;;;;;10.90;8.55;;;;;;;16.83;93.53;99467.09;5588920;31;33672;-57
2023/04/24 15:24:01;;;;;;;11.32;9.02;;;;;;;16.76;92.01;99464.19;5588695;31;33732;-57
